createdAt,value
2018-02-16T00:02:42.712Z,2.30
2018-02-16T00:12:45.468Z,2.70
2018-02-16T00:32:54.919Z,2.40
2018-02-16T00:42:57.551Z,2.10
2018-02-16T00:53:00.220Z,1.90
2018-02-16T01:03:02.895Z,1.60
2018-02-16T01:13:06.266Z,1.90
2018-02-16T01:23:08.885Z,1.90
2018-02-16T01:33:11.503Z,2.00
2018-02-16T01:43:14.364Z,1.50
2018-02-16T01:53:17.016Z,1.40
2018-02-16T02:03:19.651Z,1.00
2018-02-16T02:13:22.329Z,0.80
2018-02-16T02:23:24.982Z,0.60
2018-02-16T02:33:27.611Z,0.50
2018-02-16T02:43:30.261Z,0.70
2018-02-16T02:53:32.962Z,0.60
2018-02-16T03:03:35.630Z,0.50
2018-02-16T03:13:38.307Z,0.40
2018-02-16T03:23:41.034Z,0.40
2018-02-16T03:33:44.415Z,0.50
2018-02-16T03:43:47.072Z,0.50
2018-02-16T03:53:49.702Z,0.30
2018-02-16T04:03:52.318Z,0.30
2018-02-16T04:13:54.997Z,0.10
2018-02-16T04:23:57.672Z,-0.10
2018-02-16T04:34:00.308Z,-0.10
2018-02-16T04:44:02.924Z,-0.30
2018-02-16T04:54:05.662Z,-0.30
2018-02-16T05:04:08.301Z,-0.30
2018-02-16T05:14:10.953Z,-0.50
2018-02-16T05:24:13.604Z,-0.20
2018-02-16T05:34:16.312Z,-0.20
2018-02-16T05:44:19.022Z,-0.20
2018-02-16T05:54:21.729Z,-0.20
2018-02-16T06:04:24.464Z,0.00
2018-02-16T06:14:27.081Z,0.20
2018-02-16T06:24:29.792Z,0.10
2018-02-16T06:34:32.439Z,0.00
2018-02-16T06:44:35.133Z,0.50
2018-02-16T06:54:37.775Z,0.90
2018-02-16T07:04:40.447Z,1.30
2018-02-16T07:14:43.085Z,1.20
2018-02-16T07:24:45.835Z,1.40
2018-02-16T07:34:49.256Z,1.50
2018-02-16T07:44:51.911Z,1.50
2018-02-16T07:54:55.359Z,1.50
2018-02-16T08:04:58.003Z,1.50
2018-02-16T08:15:01.463Z,2.10
2018-02-16T08:25:17.000Z,2.10
2018-02-16T08:35:19.645Z,2.50
2018-02-16T08:45:22.497Z,3.20
2018-02-16T08:55:29.258Z,4.10
2018-02-16T09:05:33.630Z,5.00
2018-02-16T09:15:38.469Z,5.20
2018-02-16T09:25:42.660Z,5.50
2018-02-16T09:57:02.207Z,6.40
2018-02-16T10:07:19.106Z,6.40
2018-02-16T10:38:46.382Z,7.10
2018-02-16T10:49:03.661Z,7.20
2018-02-16T10:59:08.888Z,7.20
2018-02-16T11:09:31.226Z,7.80
2018-02-16T11:41:12.792Z,8.40
2018-02-16T11:51:31.992Z,8.00
2018-02-16T12:33:30.861Z,11.20
2018-02-16T13:14:58.331Z,10.80
2018-02-16T13:25:01.052Z,10.80
2018-02-16T13:45:31.988Z,12.60
2018-02-16T14:06:00.813Z,12.40
2018-02-16T14:16:03.586Z,13.20
2018-02-16T14:26:19.520Z,13.70
2018-02-16T14:36:23.404Z,12.00
2018-02-16T14:46:47.331Z,14.20
2018-02-16T14:56:50.452Z,12.30
2018-02-16T15:06:53.122Z,11.70
2018-02-16T15:17:03.015Z,12.60
2018-02-16T15:27:06.264Z,11.80
2018-02-16T15:37:08.980Z,9.80
2018-02-16T15:47:11.644Z,8.70
2018-02-16T15:57:14.331Z,8.30
2018-02-16T16:07:17.059Z,7.90
2018-02-16T16:17:19.707Z,7.40
2018-02-16T16:27:22.344Z,6.80
2018-02-16T16:37:25.693Z,6.10
2018-02-16T16:47:28.429Z,5.50
2018-02-16T16:57:31.129Z,4.90
2018-02-16T17:07:33.776Z,4.40
2018-02-16T17:17:38.256Z,4.00
2018-02-16T17:27:41.081Z,3.60
2018-02-16T17:37:47.369Z,3.20
2018-02-16T17:47:50.223Z,3.10
2018-02-16T17:57:52.929Z,2.80
2018-02-16T18:07:55.650Z,2.50
2018-02-16T18:17:58.294Z,2.20
2018-02-16T18:28:01.116Z,1.80
2018-02-16T18:38:03.751Z,2.00
2018-02-16T18:58:14.131Z,1.60
2018-02-16T19:08:16.763Z,1.30
2018-02-16T19:18:19.536Z,1.00
2018-02-16T19:28:29.986Z,0.90
2018-02-16T19:38:32.732Z,0.90
2018-02-16T19:48:35.488Z,1.00
2018-02-16T19:58:39.384Z,0.60
2018-02-16T20:08:42.896Z,0.50
2018-02-16T20:18:45.515Z,0.50
2018-02-16T20:28:48.147Z,0.20
2018-02-16T20:38:50.843Z,0.20
2018-02-16T20:48:53.524Z,0.00
2018-02-16T20:58:56.301Z,-0.10
2018-02-16T21:19:54.263Z,-0.30
2018-02-16T21:40:30.876Z,-0.40
2018-02-16T21:50:33.749Z,-0.40
2018-02-16T22:00:36.630Z,-0.20
2018-02-16T22:10:39.274Z,-0.20
2018-02-16T22:20:41.960Z,-0.40
2018-02-16T22:30:44.777Z,-0.50
2018-02-16T22:40:47.455Z,-0.70
2018-02-16T22:50:50.098Z,-0.80
2018-02-16T23:00:53.053Z,-0.90
2018-02-16T23:10:55.746Z,-1.00
2018-02-16T23:20:58.607Z,-1.00
2018-02-16T23:31:01.244Z,-1.00
2018-02-16T23:41:03.879Z,-1.00
2018-02-16T23:51:06.503Z,-1.20
